Terminal Aerodrome Forecast
Issued by NWS Billings, MT

Home | Current Version | Previous Version | Graphics & Text | Print | Product List | Glossary On
Versions: 1 2 3 4 5 6 7 8 9 10 11 12 13 14 15 16 17 18 19 20 21 22 23 24 25 26 27 28 29 30
000
FTUS45 KBYZ 111140
TAFMLS
TAF
KMLS 111140Z 1112/1212 06008KT P6SM SCT080
     FM111300 06008KT P6SM VCTS SCT080CB BKN100
     FM111500 06006KT P6SM SCT100
     FM120100 04010KT P6SM VCTS SCT080CB BKN120
     FM120700 04008KT P6SM SCT100=

USA.gov is the U.S. government's official web portal to all federal, state and local government web resources and services.